Thunder radar more information blitzortung!


Radar de pluja more information rain snow radar


Visita la nostra xarxa de llocs de meteo:

Template documentation
and downloads

And another site



No particular awareness of the weather is required.    There are no Weather-warnings

Pagina Historial Weather Underground text

Diari Resum May 28, 2016 Unitats:  Mètric    Imperial   Tant
« Previous Dia
SegĂźent Dia »
Diari Setmana Mensual Anual Personalitzada
  Maxima: Minima: Media:
Temperatura: 25.2 °C 14.2 °C 20.5 °C
Punt de rosada: 16.7 °C 11.3 °C 14.6 °C
Humitat: 87 % 57 % 70 %
Wind Speed: 22.2 km/h 0.0 km/h 7.3 km/h
RĂ fegues de vent: 22.2 km/h - -
Vent:- - SE
Pression baro: 1014.8 hPa 1010.0 hPa -
Precipitacions: 1.0 mm    
Historical Graphs
 
 
Dades de taula per May 28, 2016
Temps Temperatura Punt de rosada Pression baro Vent Wind Speed RĂ fegues de vent Humitat Rainfall Rate (Hourly)
00:00 14.6 °C 11.7 °C 1013.8 hPa Calm     83 % 0.0 mm
00:04 16.5 °C 12.4 °C 1014.8 hPa SSW 7.4 km/h 7.4 km/h 77 % 0.0 mm
00:10 14.5 °C 11.4 °C 1013.8 hPa SW 1.6 km/h 1.6 km/h 82 % 0.0 mm
00:20 14.4 °C 11.6 °C 1013.8 hPa Calm     83 % 0.0 mm
00:30 14.3 °C 11.4 °C 1013.8 hPa Calm   1.6 km/h 83 % 0.0 mm
00:40 14.4 °C 11.6 °C 1013.8 hPa Calm   1.6 km/h 83 % 0.0 mm
00:50 14.4 °C 11.6 °C 1013.8 hPa Calm   3.2 km/h 83 % 0.0 mm
01:00 14.4 °C 11.7 °C 1013.8 hPa Calm     84 % 0.0 mm
01:10 14.2 °C 11.3 °C 1013.8 hPa Calm   3.2 km/h 83 % 0.0 mm
01:20 14.2 °C 11.7 °C 1013.8 hPa Calm     85 % 0.0 mm
01:30 14.2 °C 11.7 °C 1013.8 hPa South 1.6 km/h 1.6 km/h 85 % 0.0 mm
01:40 14.3 °C 11.8 °C 1013.8 hPa ENE 1.6 km/h 1.6 km/h 85 % 0.0 mm
01:50 14.5 °C 12.0 °C 1013.8 hPa ENE 1.6 km/h 3.2 km/h 85 % 0.0 mm
02:00 14.6 °C 11.9 °C 1013.8 hPa ENE 1.6 km/h 3.2 km/h 84 % 0.0 mm
02:10 14.7 °C 12.0 °C 1013.8 hPa ENE 1.6 km/h 3.2 km/h 84 % 0.0 mm
02:20 14.7 °C 11.8 °C 1013.8 hPa ENE 1.6 km/h 3.2 km/h 83 % 0.0 mm
02:30 14.6 °C 11.6 °C 1013.8 hPa Calm   3.2 km/h 82 % 0.0 mm
02:40 14.7 °C 11.7 °C 1013.8 hPa Calm   1.6 km/h 82 % 0.0 mm
02:50 14.6 °C 11.4 °C 1013.8 hPa NE 3.2 km/h 4.8 km/h 81 % 0.0 mm
03:00 14.6 °C 11.6 °C 1013.8 hPa Calm   3.2 km/h 82 % 0.0 mm
03:10 14.6 °C 11.6 °C 1013.8 hPa NE 1.6 km/h 3.2 km/h 82 % 0.0 mm
03:20 14.6 °C 11.7 °C 1014.8 hPa Calm   3.2 km/h 83 % 0.0 mm
03:30 14.6 °C 11.7 °C 1014.8 hPa East 1.6 km/h 3.2 km/h 83 % 0.0 mm
03:40 14.6 °C 11.9 °C 1014.8 hPa ENE 3.2 km/h 3.2 km/h 84 % 0.0 mm
03:50 14.8 °C 12.3 °C 1014.8 hPa NE 1.6 km/h 3.2 km/h 85 % 0.0 mm
04:00 15.0 °C 12.7 °C 1014.8 hPa NE 1.6 km/h 3.2 km/h 86 % 0.0 mm
04:10 15.2 °C 12.9 °C 1014.8 hPa NNE 3.2 km/h 4.8 km/h 86 % 0.0 mm
04:20 15.4 °C 13.2 °C 1014.8 hPa NE 4.8 km/h 4.8 km/h 87 % 0.0 mm
04:30 15.3 °C 13.2 °C 1014.8 hPa ENE 3.2 km/h 4.8 km/h 87 % 0.0 mm
04:40 15.4 °C 13.2 °C 1013.8 hPa ENE 1.6 km/h 3.2 km/h 87 % 0.0 mm
04:50 15.6 °C 13.4 °C 1014.8 hPa ENE 1.6 km/h 3.2 km/h 87 % 0.0 mm
05:00 15.8 °C 13.7 °C 1014.8 hPa East 3.2 km/h 3.2 km/h 87 % 0.0 mm
05:10 16.2 °C 14.1 °C 1014.8 hPa Calm     87 % 0.0 mm
05:20 16.4 °C 14.2 °C 1014.8 hPa ENE 1.6 km/h 3.2 km/h 87 % 0.0 mm
05:30 16.7 °C 14.2 °C 1014.8 hPa NNE 1.6 km/h 3.2 km/h 85 % 0.0 mm
05:40 17.2 °C 14.4 °C 1013.8 hPa North 4.8 km/h 4.8 km/h 84 % 0.0 mm
10:42 17.1 °C 14.4 °C 1013.8 hPa NE 5.6 km/h 5.6 km/h 84 % 0.0 mm
10:47 17.2 °C 14.4 °C 1013.8 hPa East 3.7 km/h 3.7 km/h 84 % 0.0 mm
10:52 17.3 °C 14.4 °C 1014.8 hPa NNW 3.7 km/h   83 % 0.0 mm
10:57 17.6 °C 14.7 °C 1014.8 hPa ENE 2.3 km/h   83 % 0.0 mm
11:02 17.7 °C 14.8 °C 1014.8 hPa ENE 3.7 km/h 3.7 km/h 83 % 0.0 mm
11:07 18.1 °C 15.0 °C 1014.8 hPa WSW 3.9 km/h 3.9 km/h 82 % 0.0 mm
11:12 18.1 °C 14.8 °C 1014.8 hPa SE 3.7 km/h 3.7 km/h 81 % 0.0 mm
11:17 18.3 °C 15.0 °C 1014.8 hPa NNE 4.2 km/h 4.2 km/h 81 % 0.0 mm
11:22 18.4 °C 14.9 °C 1013.8 hPa ENE 3.2 km/h 3.2 km/h 80 % 0.0 mm
11:27 18.4 °C 14.9 °C 1013.8 hPa East 1.9 km/h   80 % 0.0 mm
11:32 18.7 °C 15.0 °C 1013.8 hPa NE 3.7 km/h 3.7 km/h 79 % 0.0 mm
11:37 18.8 °C 15.1 °C 1013.8 hPa East 3.9 km/h 4.2 km/h 79 % 0.0 mm
11:42 19.0 °C 15.1 °C 1013.8 hPa West 1.9 km/h   78 % 0.0 mm
11:47 19.6 °C 15.4 °C 1013.8 hPa WSW 6.4 km/h 6.4 km/h 77 % 0.0 mm
11:52 19.4 °C 15.3 °C 1013.8 hPa WSW 7.4 km/h 7.4 km/h 77 % 0.0 mm
11:57 19.8 °C 15.7 °C 1013.8 hPa ESE 7.4 km/h 7.4 km/h 77 % 0.0 mm
12:02 20.6 °C 16.0 °C 1013.8 hPa South 3.7 km/h 3.7 km/h 75 % 0.0 mm
12:07 20.9 °C 16.1 °C 1013.8 hPa East 7.4 km/h 7.4 km/h 74 % 0.0 mm
12:12 20.9 °C 15.9 °C 1013.8 hPa ESE 5.6 km/h 5.6 km/h 73 % 0.0 mm
12:17 21.2 °C 15.9 °C 1013.8 hPa SSW 9.3 km/h 9.3 km/h 72 % 0.0 mm
12:22 21.7 °C 16.7 °C 1013.8 hPa South 3.7 km/h 3.7 km/h 73 % 0.0 mm
12:27 22.0 °C 16.3 °C 1013.8 hPa SW 7.4 km/h 7.4 km/h 70 % 0.0 mm
12:32 22.3 °C 16.3 °C 1013.8 hPa SW 5.6 km/h 5.6 km/h 69 % 0.0 mm
12:37 22.6 °C 16.4 °C 1013.8 hPa WSW 9.3 km/h 9.3 km/h 68 % 0.0 mm
12:42 23.0 °C 16.3 °C 1013.8 hPa SE 5.0 km/h 5.0 km/h 66 % 0.0 mm
12:47 23.0 °C 16.3 °C 1013.8 hPa South 5.6 km/h 5.6 km/h 66 % 0.0 mm
12:52 22.9 °C 15.9 °C 1013.8 hPa SE 5.6 km/h 5.6 km/h 65 % 0.0 mm
12:57 23.2 °C 16.3 °C 1013.8 hPa SW 4.7 km/h 4.7 km/h 65 % 0.0 mm
13:02 23.4 °C 16.4 °C 1013.8 hPa ENE 5.8 km/h 5.8 km/h 65 % 0.0 mm
13:07 23.3 °C 16.1 °C 1013.8 hPa SE 11.1 km/h 11.1 km/h 64 % 0.0 mm
13:12 23.5 °C 16.3 °C 1013.8 hPa ESE 7.4 km/h 7.4 km/h 64 % 0.0 mm
13:17 23.7 °C 16.2 °C 1013.8 hPa WSW 8.7 km/h 8.7 km/h 63 % 0.0 mm
13:22 23.9 °C 16.2 °C 1013.8 hPa NNE 5.6 km/h 5.6 km/h 62 % 0.0 mm
13:27 24.0 °C 16.3 °C 1013.8 hPa East 7.6 km/h 7.6 km/h 62 % 0.0 mm
13:32 24.3 °C 16.3 °C 1013.8 hPa SSE 7.4 km/h 7.4 km/h 61 % 0.0 mm
13:37 24.4 °C 16.1 °C 1013.8 hPa ENE 12.6 km/h 12.6 km/h 60 % 0.0 mm
13:42 24.5 °C 16.5 °C 1013.8 hPa ESE 7.4 km/h 7.4 km/h 61 % 0.0 mm
13:47 24.3 °C 16.3 °C 1013.8 hPa SE 9.3 km/h 9.3 km/h 61 % 0.0 mm
13:52 24.7 °C 16.4 °C 1013.8 hPa SW 9.3 km/h 9.3 km/h 60 % 0.0 mm
13:57 24.6 °C 16.3 °C 1013.8 hPa East 13.0 km/h 13.0 km/h 60 % 0.0 mm
14:02 24.5 °C 16.2 °C 1013.8 hPa ESE 9.5 km/h 10.0 km/h 60 % 0.0 mm
14:07 24.6 °C 16.6 °C 1013.8 hPa ESE 14.8 km/h 14.8 km/h 61 % 0.0 mm
14:12 24.3 °C 16.1 °C 1013.8 hPa ENE 20.4 km/h 20.4 km/h 60 % 0.0 mm
14:17 24.4 °C 16.1 °C 1013.8 hPa North 16.7 km/h 16.7 km/h 60 % 0.0 mm
14:22 24.6 °C 16.6 °C 1012.8 hPa East 11.1 km/h 11.1 km/h 61 % 0.0 mm
14:27 24.7 °C 16.4 °C 1012.8 hPa ESE 16.9 km/h 16.9 km/h 60 % 0.0 mm
14:32 24.6 °C 16.3 °C 1012.8 hPa East 16.7 km/h 16.7 km/h 60 % 0.0 mm
14:37 24.6 °C 16.3 °C 1012.8 hPa ESE 16.7 km/h 16.7 km/h 60 % 0.0 mm
14:42 24.7 °C 16.4 °C 1012.8 hPa East 14.8 km/h 14.8 km/h 60 % 0.0 mm
14:47 24.4 °C 16.1 °C 1012.8 hPa ESE 13.0 km/h 13.0 km/h 60 % 0.0 mm
14:52 24.8 °C 16.5 °C 1011.7 hPa ENE 10.3 km/h 11.9 km/h 60 % 0.0 mm
14:57 24.7 °C 16.4 °C 1011.7 hPa ENE 11.1 km/h 11.1 km/h 60 % 0.0 mm
15:02 24.9 °C 16.6 °C 1011.7 hPa ESE 14.5 km/h 14.5 km/h 60 % 0.0 mm
15:07 24.6 °C 16.3 °C 1011.7 hPa NNE 11.1 km/h 11.1 km/h 60 % 0.0 mm
15:12 24.9 °C 16.3 °C 1011.7 hPa NE 13.0 km/h 13.0 km/h 59 % 0.0 mm
15:17 25.0 °C 16.2 °C 1010.7 hPa ESE 13.0 km/h 13.0 km/h 58 % 0.0 mm
15:22 25.1 °C 16.3 °C 1010.7 hPa ENE 14.8 km/h 14.8 km/h 58 % 0.0 mm
15:27 25.2 °C 16.3 °C 1010.7 hPa East 13.0 km/h 13.0 km/h 58 % 0.0 mm
15:32 25.1 °C 16.3 °C 1010.7 hPa ENE 18.5 km/h 18.5 km/h 58 % 0.0 mm
15:37 24.9 °C 16.1 °C 1010.7 hPa ESE 22.2 km/h 22.2 km/h 58 % 0.0 mm
15:42 24.7 °C 15.9 °C 1010.7 hPa SSW 20.4 km/h 20.4 km/h 58 % 0.0 mm
15:52 24.5 °C 15.7 °C 1011.7 hPa ESE 14.8 km/h 14.8 km/h 58 % 0.0 mm
15:57 24.2 °C 15.7 °C 1011.7 hPa ESE 16.7 km/h 16.7 km/h 59 % 0.0 mm
16:02 23.9 °C 15.7 °C 1011.7 hPa ENE 22.2 km/h 22.2 km/h 60 % 0.0 mm
16:07 23.5 °C 15.3 °C 1011.7 hPa East 20.4 km/h 20.4 km/h 60 % 0.0 mm
16:12 23.4 °C 15.2 °C 1011.7 hPa ESE 20.4 km/h 20.4 km/h 60 % 0.0 mm
16:17 23.1 °C 15.2 °C 1011.7 hPa ESE 16.7 km/h 16.7 km/h 61 % 0.0 mm
16:22 22.6 °C 14.9 °C 1011.7 hPa NE 16.7 km/h 16.7 km/h 62 % 0.0 mm
16:27 22.6 °C 14.9 °C 1011.7 hPa ESE 17.2 km/h 17.2 km/h 62 % 0.0 mm
16:37 22.3 °C 14.7 °C 1011.7 hPa East 14.8 km/h 14.8 km/h 62 % 0.0 mm
16:42 22.2 °C 14.8 °C 1011.7 hPa ESE 9.3 km/h 9.3 km/h 63 % 0.0 mm
16:48 22.5 °C 14.8 °C 1011.7 hPa ESE 11.1 km/h 11.1 km/h 62 % 0.0 mm
16:58 22.9 °C 15.2 °C 1011.7 hPa ESE 9.3 km/h 9.3 km/h 62 % 0.0 mm
17:03 23.2 °C 15.5 °C 1011.7 hPa ESE 9.3 km/h 9.3 km/h 62 % 0.0 mm
17:08 23.2 °C 15.3 °C 1011.7 hPa ENE 7.4 km/h 7.4 km/h 61 % 0.0 mm
17:13 23.2 °C 15.3 °C 1011.7 hPa ENE 5.6 km/h 5.6 km/h 61 % 0.0 mm
17:18 23.8 °C 15.8 °C 1011.7 hPa East 3.7 km/h 3.7 km/h 61 % 0.0 mm
17:23 23.9 °C 15.9 °C 1011.7 hPa ENE 8.7 km/h 8.7 km/h 61 % 0.0 mm
17:33 23.8 °C 15.8 °C 1011.7 hPa East 16.7 km/h 16.7 km/h 61 % 0.0 mm
17:38 23.9 °C 15.7 °C 1011.7 hPa ENE 20.4 km/h 20.4 km/h 60 % 0.0 mm
17:43 23.6 °C 15.4 °C 1011.7 hPa ENE 16.7 km/h 16.7 km/h 60 % 0.0 mm
17:48 23.8 °C 15.8 °C 1011.7 hPa ESE 13.0 km/h 13.0 km/h 61 % 0.0 mm
17:53 23.9 °C 15.7 °C 1011.7 hPa ESE 18.0 km/h 18.0 km/h 60 % 0.0 mm
17:58 24.3 °C 15.8 °C 1011.7 hPa ENE 14.8 km/h 14.8 km/h 59 % 0.0 mm
18:03 24.3 °C 15.8 °C 1011.7 hPa West 9.3 km/h 9.3 km/h 59 % 0.0 mm
18:08 25.0 °C 15.9 °C 1011.7 hPa SSE 9.3 km/h 9.3 km/h 57 % 0.0 mm
18:13 24.6 °C 15.8 °C 1011.7 hPa East 13.0 km/h 13.0 km/h 58 % 0.0 mm
18:18 25.0 °C 15.9 °C 1011.7 hPa ESE 11.1 km/h 11.1 km/h 57 % 0.0 mm
18:23 24.5 °C 15.9 °C 1011.7 hPa SE 9.3 km/h 9.3 km/h 59 % 0.0 mm
18:28 24.9 °C 16.1 °C 1011.7 hPa SSW 7.4 km/h 7.4 km/h 58 % 0.0 mm
18:33 24.8 °C 16.0 °C 1011.7 hPa SW 13.0 km/h 13.0 km/h 58 % 0.0 mm
18:38 24.3 °C 15.5 °C 1011.7 hPa WSW 9.7 km/h 9.7 km/h 58 % 0.0 mm
18:43 23.9 °C 15.4 °C 1011.7 hPa SW 7.4 km/h 7.4 km/h 59 % 0.0 mm
18:48 23.9 °C 15.4 °C 1011.7 hPa West 7.4 km/h 7.4 km/h 59 % 0.0 mm
18:53 23.9 °C 15.4 °C 1011.7 hPa West 9.3 km/h 9.3 km/h 59 % 0.0 mm
18:58 23.3 °C 15.1 °C 1011.7 hPa West 11.1 km/h 11.1 km/h 60 % 0.0 mm
19:03 23.3 °C 15.1 °C 1011.7 hPa SW 9.3 km/h 9.3 km/h 60 % 0.0 mm
19:08 23.3 °C 15.1 °C 1011.7 hPa WSW 7.4 km/h 7.4 km/h 60 % 0.0 mm
19:13 23.3 °C 15.1 °C 1011.7 hPa WSW 7.4 km/h 7.4 km/h 60 % 0.0 mm
19:18 22.7 °C 15.1 °C 1010.7 hPa WSW 7.4 km/h 7.4 km/h 62 % 0.0 mm
19:23 22.5 °C 14.8 °C 1010.7 hPa SSW 5.6 km/h 5.6 km/h 62 % 0.0 mm
19:28 22.5 °C 14.8 °C 1010.7 hPa SW 5.6 km/h 5.6 km/h 62 % 0.0 mm
19:33 22.5 °C 14.8 °C 1011.7 hPa NW 3.7 km/h 3.7 km/h 62 % 0.0 mm
19:38 22.5 °C 14.8 °C 1011.7 hPa WSW 3.7 km/h 3.7 km/h 62 % 0.0 mm
19:43 22.5 °C 14.8 °C 1011.7 hPa WSW 5.6 km/h 5.6 km/h 62 % 0.0 mm
19:48 22.2 °C 14.8 °C 1010.7 hPa SW 5.6 km/h 5.6 km/h 63 % 0.0 mm
19:58 22.3 °C 14.9 °C 1010.7 hPa ENE 3.7 km/h 3.7 km/h 63 % 0.0 mm
20:03 21.9 °C 15.0 °C 1010.7 hPa ENE 3.9 km/h 3.9 km/h 65 % 0.0 mm
20:13 21.7 °C 14.8 °C 1010.7 hPa East 7.4 km/h 7.4 km/h 65 % 0.0 mm
20:18 21.7 °C 14.8 °C 1010.7 hPa East 7.4 km/h 7.4 km/h 65 % 0.0 mm
20:23 21.5 °C 14.9 °C 1010.7 hPa SE 5.6 km/h 5.6 km/h 66 % 0.0 mm
20:28 21.4 °C 14.8 °C 1010.7 hPa SSW 7.6 km/h 7.6 km/h 66 % 0.0 mm
20:33 21.4 °C 14.8 °C 1010.0 hPa SSW 5.6 km/h 5.6 km/h 66 % 0.0 mm
20:38 21.4 °C 14.8 °C 1010.0 hPa South 3.7 km/h 3.7 km/h 66 % 0.0 mm
20:43 21.4 °C 14.8 °C 1010.0 hPa SSE 5.6 km/h 5.6 km/h 66 % 0.0 mm
20:48 21.3 °C 14.9 °C 1010.7 hPa ESE 5.6 km/h 5.6 km/h 67 % 0.0 mm
20:53 21.3 °C 14.9 °C 1010.7 hPa ESE 9.3 km/h 9.3 km/h 67 % 0.0 mm
20:58 21.3 °C 14.9 °C 1010.7 hPa ESE 6.1 km/h 6.1 km/h 67 % 0.0 mm
21:03 21.3 °C 14.9 °C 1010.7 hPa ESE 10.0 km/h 10.0 km/h 67 % 0.0 mm
21:08 21.3 °C 14.9 °C 1010.7 hPa ESE 9.3 km/h 9.3 km/h 67 % 0.0 mm
21:13 21.3 °C 14.9 °C 1010.7 hPa ENE 5.6 km/h 5.6 km/h 67 % 0.0 mm
21:19 21.3 °C 14.9 °C 1010.7 hPa East 3.7 km/h 3.7 km/h 67 % 0.0 mm
21:24 21.3 °C 14.9 °C 1010.7 hPa SE 5.6 km/h 5.6 km/h 67 % 0.0 mm
21:29 21.3 °C 14.9 °C 1010.7 hPa ENE 3.9 km/h 3.9 km/h 67 % 0.0 mm
21:34 21.3 °C 14.9 °C 1010.7 hPa East 1.9 km/h 1.9 km/h 67 % 0.0 mm
21:39 21.3 °C 14.9 °C 1010.7 hPa East 3.7 km/h 3.7 km/h 67 % 0.0 mm
21:44 21.3 °C 14.9 °C 1010.7 hPa ESE 3.7 km/h 3.7 km/h 67 % 0.0 mm
21:49 20.4 °C 14.7 °C 1011.7 hPa NE 5.6 km/h 5.6 km/h 70 % 0.0 mm
21:54 20.4 °C 14.7 °C 1011.7 hPa ENE 3.7 km/h 3.7 km/h 70 % 0.0 mm
21:59 20.4 °C 14.7 °C 1011.7 hPa SSE 7.4 km/h 7.4 km/h 70 % 0.0 mm
22:04 20.4 °C 14.7 °C 1011.7 hPa ESE 5.8 km/h 5.8 km/h 70 % 0.0 mm
22:09 20.4 °C 14.7 °C 1011.7 hPa SSE 2.3 km/h   70 % 0.0 mm
22:14 19.7 °C 14.7 °C 1011.7 hPa West 1.9 km/h 1.9 km/h 73 % 0.0 mm
22:19 19.7 °C 14.7 °C 1011.7 hPa SW 7.4 km/h 7.4 km/h 73 % 0.0 mm
22:24 19.7 °C 14.7 °C 1011.7 hPa WSW 13.7 km/h 13.7 km/h 73 % 0.0 mm
22:29 19.6 °C 15.1 °C 1011.7 hPa SW 16.7 km/h 16.7 km/h 75 % 0.0 mm
22:34 19.2 °C 15.3 °C 1013.8 hPa West 5.8 km/h 13.7 km/h 78 % 0.0 mm
22:39 18.4 °C 15.7 °C 1013.8 hPa West 7.4 km/h 7.4 km/h 84 % 0.0 mm
22:49 17.2 °C 12.7 °C 1013.8 hPa WSW 16.7 km/h 16.7 km/h 75 % 1.0 mm
22:54 16.7 °C 12.2 °C 1013.8 hPa WSW 13.0 km/h 13.0 km/h 75 % 1.0 mm
22:59 16.3 °C 12.1 °C 1013.8 hPa WSW 9.3 km/h 9.3 km/h 76 % 1.0 mm
23:04 16.1 °C 12.1 °C 1013.8 hPa WSW 3.7 km/h   77 % 1.0 mm
23:09 15.9 °C 11.9 °C 1013.8 hPa WSW 3.7 km/h 3.7 km/h 77 % 1.0 mm
23:14 15.7 °C 11.9 °C 1013.8 hPa South 1.9 km/h   78 % 1.0 mm
23:19 15.5 °C 11.9 °C 1013.8 hPa WSW 1.9 km/h   79 % 1.0 mm
23:24 15.5 °C 11.9 °C 1013.8 hPa Calm     79 % 1.0 mm
23:29 15.6 °C 12.2 °C 1013.8 hPa Calm     80 % 1.0 mm
23:34 15.5 °C 12.1 °C 1012.8 hPa ENE 1.9 km/h 1.9 km/h 80 % 1.0 mm
23:39 15.5 °C 11.9 °C 1012.8 hPa ESE 3.7 km/h 3.7 km/h 79 % 1.0 mm
23:44 15.6 °C 11.9 °C 1012.8 hPa SW 2.6 km/h 2.6 km/h 79 % 0.0 mm
23:49 15.6 °C 11.9 °C 1012.8 hPa WSW 3.7 km/h 3.7 km/h 79 % 0.0 mm
23:54 15.5 °C 11.9 °C 1012.8 hPa SW 5.0 km/h 5.0 km/h 79 % 0.0 mm
23:59 15.4 °C 11.9 °C 1012.8 hPa ENE 2.6 km/h 2.6 km/h 80 % 0.0 mm
Meteo Sesrovires
Elogis d' Weather Underground - 3.5 mb

Guio original per  Jim McMurry - jmcmurry@mwt.net Adaptat per a la plantilla per  Wim van der Kuil - Leuven-Template.eu

Trobareu la nostra informacio del temps tambe a:

Weather Underground

AWEKAS